createdAt,value
2022-08-19T00:00:14.690Z,99.90
2022-08-19T00:02:50.619Z,99.90
2022-08-19T00:05:24.944Z,99.90
2022-08-19T00:07:56.304Z,99.90
2022-08-19T00:10:29.649Z,99.90
2022-08-19T00:13:00.802Z,99.90
2022-08-19T00:15:32.132Z,99.90
2022-08-19T00:18:03.254Z,99.90
2022-08-19T00:20:34.645Z,99.90
2022-08-19T00:23:05.939Z,99.90
2022-08-19T00:25:38.812Z,99.90
2022-08-19T00:28:30.507Z,99.90
2022-08-19T00:31:02.332Z,99.90
2022-08-19T00:33:37.636Z,99.90
2022-08-19T00:36:11.793Z,99.90
2022-08-19T00:38:45.343Z,99.90
2022-08-19T00:44:17.454Z,99.90
2022-08-19T00:46:55.378Z,99.90
2022-08-19T00:49:43.219Z,99.90
2022-08-19T00:52:39.706Z,99.90
2022-08-19T00:55:14.277Z,99.90
2022-08-19T00:57:53.093Z,99.90
2022-08-19T01:00:28.226Z,99.90
2022-08-19T01:02:59.621Z,99.90
2022-08-19T01:05:32.185Z,99.90
2022-08-19T01:08:09.647Z,99.90
2022-08-19T01:10:52.631Z,99.90
2022-08-19T01:13:48.971Z,99.90
2022-08-19T01:16:24.697Z,99.90
2022-08-19T01:18:58.871Z,99.90
2022-08-19T01:21:35.538Z,99.90
2022-08-19T01:24:07.244Z,99.90
2022-08-19T01:26:45.347Z,99.90
2022-08-19T01:29:18.636Z,99.90
2022-08-19T01:31:54.532Z,99.90
2022-08-19T01:34:27.020Z,99.90
2022-08-19T01:36:58.520Z,99.90
2022-08-19T01:39:32.532Z,99.90
2022-08-19T01:42:07.719Z,99.90
2022-08-19T01:44:39.835Z,99.90
2022-08-19T01:47:14.866Z,99.90
2022-08-19T01:50:09.070Z,99.90
2022-08-19T01:52:42.779Z,99.90
2022-08-19T01:55:19.098Z,99.90
2022-08-19T01:57:56.172Z,99.90
2022-08-19T02:00:33.421Z,99.90
2022-08-19T02:03:04.941Z,99.90
2022-08-19T02:05:36.430Z,99.90
2022-08-19T02:08:08.827Z,99.90
2022-08-19T02:10:45.058Z,99.90
2022-08-19T02:13:16.886Z,99.90
2022-08-19T02:15:55.411Z,99.90
2022-08-19T02:18:46.808Z,99.90
2022-08-19T02:21:22.991Z,99.90
2022-08-19T02:23:54.815Z,99.90
2022-08-19T02:26:29.930Z,99.90
2022-08-19T02:29:01.337Z,99.90
2022-08-19T02:31:32.764Z,99.90
2022-08-19T02:34:04.371Z,99.90
2022-08-19T02:36:35.656Z,99.90
2022-08-19T02:39:10.012Z,99.90
2022-08-19T02:41:41.553Z,99.90
2022-08-19T02:44:32.757Z,99.90
2022-08-19T02:47:03.958Z,99.90
2022-08-19T02:49:35.061Z,99.90
2022-08-19T02:52:07.017Z,99.90
2022-08-19T02:54:38.044Z,99.90
2022-08-19T02:57:31.088Z,99.90
2022-08-19T03:00:22.920Z,99.90
2022-08-19T03:02:54.670Z,99.90
2022-08-19T03:05:45.967Z,99.90
2022-08-19T03:08:17.720Z,99.90
2022-08-19T03:10:50.811Z,99.90
2022-08-19T03:13:22.208Z,99.90
2022-08-19T03:15:53.665Z,99.90
2022-08-19T03:18:25.112Z,99.90
2022-08-19T03:20:58.423Z,99.90
2022-08-19T03:23:30.839Z,99.90
2022-08-19T03:26:15.550Z,99.90
2022-08-19T03:29:11.317Z,99.90
2022-08-19T03:31:52.571Z,99.90
2022-08-19T03:34:29.414Z,99.90
2022-08-19T03:37:06.808Z,99.90
2022-08-19T03:39:40.674Z,99.90
2022-08-19T03:42:32.205Z,99.90
2022-08-19T03:45:05.474Z,99.90
2022-08-19T03:47:36.785Z,99.90
2022-08-19T03:50:08.442Z,99.90
2022-08-19T03:52:39.692Z,99.90
2022-08-19T03:55:17.776Z,99.90
2022-08-19T03:57:50.070Z,99.90
2022-08-19T04:00:21.282Z,99.90
2022-08-19T04:02:56.470Z,99.90
2022-08-19T04:05:32.902Z,99.90
2022-08-19T04:08:04.279Z,99.90
2022-08-19T04:10:40.643Z,99.90
2022-08-19T04:13:11.835Z,99.90
2022-08-19T04:15:45.477Z,99.90
2022-08-19T04:18:17.286Z,99.90
2022-08-19T04:21:09.685Z,99.90
2022-08-19T04:23:45.608Z,99.80
2022-08-19T04:26:19.013Z,99.30
2022-08-19T04:28:51.905Z,99.90
2022-08-19T04:31:28.497Z,99.90
2022-08-19T04:34:01.225Z,99.90
2022-08-19T04:36:36.617Z,99.90
2022-08-19T04:39:14.247Z,99.90
2022-08-19T04:42:07.029Z,99.80
2022-08-19T04:44:46.105Z,99.30
2022-08-19T04:47:18.537Z,99.90
2022-08-19T04:50:30.481Z,99.90
2022-08-19T04:53:01.979Z,99.90
2022-08-19T04:55:37.870Z,99.50
2022-08-19T04:58:09.845Z,98.70
2022-08-19T05:00:42.607Z,98.80
2022-08-19T05:03:15.528Z,96.70
2022-08-19T05:06:08.457Z,96.60
2022-08-19T05:08:46.007Z,95.70
2022-08-19T05:11:28.127Z,95.60
2022-08-19T05:14:00.126Z,96.00
2022-08-19T05:16:32.047Z,94.70
2022-08-19T05:19:21.681Z,94.90
2022-08-19T05:22:11.337Z,94.60
2022-08-19T05:25:02.385Z,94.50
2022-08-19T05:27:34.807Z,94.30
2022-08-19T05:30:06.675Z,94.70
2022-08-19T05:32:38.271Z,94.60
2022-08-19T05:35:12.337Z,94.90
2022-08-19T05:37:44.985Z,94.60
2022-08-19T05:40:16.390Z,93.90
2022-08-19T05:43:07.728Z,94.20
2022-08-19T05:45:44.501Z,94.10
2022-08-19T05:48:16.939Z,93.20
2022-08-19T05:51:09.029Z,92.50
2022-08-19T05:53:40.789Z,92.70
2022-08-19T05:56:20.140Z,92.50
2022-08-19T05:58:51.647Z,92.30
2022-08-19T06:01:23.062Z,92.10
2022-08-19T06:04:15.891Z,92.60
2022-08-19T06:07:12.555Z,92.60
2022-08-19T06:09:54.448Z,93.00
2022-08-19T06:12:37.431Z,92.50
2022-08-19T06:15:14.261Z,92.30
2022-08-19T06:17:49.392Z,91.70
2022-08-19T06:20:39.916Z,90.30
2022-08-19T06:23:13.209Z,91.90
2022-08-19T06:25:48.638Z,91.10
2022-08-19T06:28:20.311Z,90.20
2022-08-19T06:30:52.512Z,89.50
2022-08-19T06:33:23.992Z,90.10
2022-08-19T06:35:55.043Z,88.70
2022-08-19T06:38:26.308Z,87.70
2022-08-19T06:41:08.402Z,89.70
2022-08-19T06:44:00.208Z,90.40
2022-08-19T06:46:31.560Z,86.50
2022-08-19T06:49:07.043Z,86.60
2022-08-19T06:51:43.675Z,86.90
2022-08-19T06:54:18.963Z,86.40
2022-08-19T06:56:51.162Z,86.00
2022-08-19T06:59:29.685Z,85.50
2022-08-19T07:02:01.995Z,85.20
2022-08-19T07:04:35.224Z,84.90
2022-08-19T07:07:20.920Z,84.90
2022-08-19T07:10:12.669Z,84.50
2022-08-19T07:12:44.202Z,86.20
2022-08-19T07:15:15.812Z,84.10
2022-08-19T07:17:48.024Z,84.10
2022-08-19T07:20:28.566Z,85.50
2022-08-19T07:23:00.742Z,85.60
2022-08-19T07:25:33.323Z,86.50
2022-08-19T07:28:04.695Z,83.10
2022-08-19T07:30:36.161Z,82.30
2022-08-19T07:33:08.221Z,86.60
2022-08-19T07:35:39.686Z,86.30
2022-08-19T07:38:12.159Z,82.10
2022-08-19T07:40:43.689Z,82.50
2022-08-19T07:43:17.812Z,81.50
2022-08-19T07:45:49.724Z,80.30
2022-08-19T07:48:21.092Z,80.00
2022-08-19T07:50:53.224Z,79.10
2022-08-19T07:53:26.699Z,79.30
2022-08-19T07:56:02.534Z,80.50
2022-08-19T07:58:40.522Z,80.30
2022-08-19T08:01:15.053Z,81.30
2022-08-19T08:04:04.731Z,83.90
2022-08-19T08:06:55.795Z,82.80
2022-08-19T08:09:32.279Z,84.80
2022-08-19T08:12:34.741Z,84.60
2022-08-19T08:15:13.807Z,82.50
2022-08-19T08:17:51.648Z,82.70
2022-08-19T08:20:23.313Z,83.00
2022-08-19T08:23:12.776Z,84.40
2022-08-19T08:25:44.179Z,82.60
2022-08-19T08:28:17.555Z,80.00
2022-08-19T08:30:51.334Z,81.40
2022-08-19T08:33:46.254Z,79.50
2022-08-19T08:36:18.196Z,82.90
2022-08-19T08:38:49.693Z,81.10
2022-08-19T08:41:38.578Z,81.30
2022-08-19T08:44:17.199Z,82.80
2022-08-19T08:46:56.523Z,80.60
2022-08-19T08:49:52.037Z,80.10
2022-08-19T08:53:07.107Z,79.60
2022-08-19T08:55:39.864Z,77.90
2022-08-19T08:58:27.232Z,80.50
2022-08-19T09:00:59.053Z,81.30
2022-08-19T09:03:51.656Z,81.00
2022-08-19T09:06:35.341Z,81.80
2022-08-19T09:09:30.805Z,81.30
2022-08-19T09:12:27.464Z,83.40
2022-08-19T09:15:07.719Z,83.70
2022-08-19T09:17:40.985Z,83.60
2022-08-19T09:20:26.273Z,81.40
2022-08-19T09:22:58.906Z,81.90
2022-08-19T09:25:30.545Z,82.00
2022-08-19T09:28:05.618Z,83.50
2022-08-19T09:30:45.158Z,82.70
2022-08-19T09:33:16.152Z,83.90
2022-08-19T09:35:49.995Z,81.70
2022-08-19T09:38:25.007Z,80.60
2022-08-19T09:40:56.080Z,79.70
2022-08-19T09:43:33.027Z,82.70
2022-08-19T09:46:08.597Z,82.10
2022-08-19T09:48:41.694Z,83.70
2022-08-19T09:51:38.774Z,81.70
2022-08-19T09:54:11.408Z,82.40
2022-08-19T09:57:04.712Z,84.70
2022-08-19T09:59:38.953Z,82.50
2022-08-19T10:02:30.099Z,84.40
2022-08-19T10:05:23.045Z,85.50
2022-08-19T10:08:26.578Z,87.40
2022-08-19T10:11:27.879Z,88.30
2022-08-19T10:13:52.426Z,88.40
2022-08-19T10:16:30.480Z,88.90
2022-08-19T10:19:03.887Z,90.00
2022-08-19T10:21:37.963Z,90.40
2022-08-19T10:24:11.701Z,91.00
2022-08-19T10:26:55.842Z,91.10
2022-08-19T10:29:32.507Z,91.10
2022-08-19T10:32:10.256Z,91.70
2022-08-19T10:34:48.221Z,92.40
2022-08-19T10:37:23.914Z,92.30
2022-08-19T10:40:00.704Z,92.30
2022-08-19T10:42:33.588Z,92.10
2022-08-19T10:45:05.637Z,92.60
2022-08-19T10:47:38.670Z,94.50
2022-08-19T10:50:28.982Z,95.30
2022-08-19T10:53:10.810Z,95.90
2022-08-19T10:55:59.902Z,96.70
2022-08-19T10:58:31.253Z,96.70
2022-08-19T11:01:03.197Z,97.40
2022-08-19T11:03:35.355Z,98.30
2022-08-19T11:06:23.341Z,98.90
2022-08-19T11:08:57.052Z,99.90
2022-08-19T11:11:28.781Z,99.90
2022-08-19T11:14:00.230Z,99.90
2022-08-19T11:16:32.546Z,99.90
2022-08-19T11:19:04.665Z,99.90
2022-08-19T11:21:39.917Z,99.90
2022-08-19T11:24:14.856Z,99.90
2022-08-19T11:26:47.998Z,99.90
2022-08-19T11:29:21.620Z,99.90
2022-08-19T11:31:52.509Z,99.90
2022-08-19T11:34:26.701Z,99.90
2022-08-19T11:37:02.969Z,99.90
2022-08-19T11:39:38.082Z,99.90
2022-08-19T11:42:28.787Z,99.90
2022-08-19T11:45:00.133Z,99.90
2022-08-19T11:47:33.030Z,99.90
2022-08-19T11:50:06.758Z,99.90
2022-08-19T11:52:38.028Z,99.90
2022-08-19T11:55:10.187Z,99.90
2022-08-19T11:58:01.194Z,99.90
2022-08-19T12:00:32.354Z,99.90
2022-08-19T12:03:03.686Z,99.90
2022-08-19T12:05:35.000Z,99.90
2022-08-19T12:08:07.021Z,99.90
2022-08-19T12:10:39.484Z,99.90
2022-08-19T12:13:13.083Z,99.90
2022-08-19T12:15:45.583Z,99.90
2022-08-19T12:18:18.946Z,99.90
2022-08-19T12:20:50.072Z,99.90
2022-08-19T12:23:22.131Z,99.90
2022-08-19T12:25:54.229Z,99.90
2022-08-19T12:28:27.524Z,99.90
2022-08-19T12:31:00.184Z,99.90
2022-08-19T12:33:51.506Z,99.90
2022-08-19T12:36:24.364Z,99.90
2022-08-19T12:38:56.377Z,99.90
2022-08-19T12:41:27.937Z,99.90
2022-08-19T12:43:59.148Z,99.90
2022-08-19T12:46:31.458Z,99.90
2022-08-19T12:49:24.541Z,99.90
2022-08-19T12:52:00.705Z,99.90
2022-08-19T12:54:33.098Z,99.90
2022-08-19T12:57:33.053Z,99.90
2022-08-19T13:00:16.909Z,99.90
2022-08-19T13:02:52.968Z,99.90
2022-08-19T13:05:26.938Z,99.90
2022-08-19T13:07:59.867Z,99.90
2022-08-19T13:10:37.288Z,99.90
2022-08-19T13:13:12.326Z,99.90
2022-08-19T13:15:47.596Z,99.90
2022-08-19T13:18:39.293Z,99.90
2022-08-19T13:21:14.079Z,99.90
2022-08-19T13:23:45.926Z,99.90
2022-08-19T13:26:17.923Z,99.90
2022-08-19T13:29:24.982Z,99.90
2022-08-19T13:32:18.653Z,99.90
2022-08-19T13:35:16.547Z,99.90
2022-08-19T13:37:50.284Z,99.90
2022-08-19T13:40:26.289Z,99.90
2022-08-19T13:42:58.696Z,99.90
2022-08-19T13:45:32.378Z,99.90
2022-08-19T13:48:08.862Z,99.90
2022-08-19T13:50:46.112Z,99.90
2022-08-19T13:53:18.499Z,99.90
2022-08-19T13:55:50.509Z,99.90
2022-08-19T13:58:23.467Z,99.90
2022-08-19T14:00:55.262Z,99.90
2022-08-19T14:03:31.227Z,99.90
2022-08-19T14:06:08.948Z,99.90
2022-08-19T14:08:46.190Z,99.90
2022-08-19T14:11:19.331Z,99.90
2022-08-19T14:13:51.036Z,99.90
2022-08-19T14:16:24.594Z,99.90
2022-08-19T14:18:57.227Z,99.90
2022-08-19T14:21:30.356Z,99.90
2022-08-19T14:24:01.807Z,99.90
2022-08-19T14:26:33.759Z,99.90
2022-08-19T14:29:05.433Z,99.90
2022-08-19T14:31:56.640Z,99.90
2022-08-19T14:34:30.182Z,99.90
2022-08-19T14:37:02.299Z,99.90
2022-08-19T14:39:33.862Z,99.90
2022-08-19T14:42:11.368Z,99.90
2022-08-19T14:45:03.583Z,99.90
2022-08-19T14:47:36.266Z,99.90
2022-08-19T14:50:34.888Z,99.90
2022-08-19T14:53:12.568Z,99.90
2022-08-19T14:56:10.297Z,99.90
2022-08-19T14:58:43.774Z,99.90
2022-08-19T15:01:16.331Z,99.90
2022-08-19T15:03:48.006Z,99.90
2022-08-19T15:06:21.311Z,99.90
2022-08-19T15:08:54.055Z,99.90
2022-08-19T15:11:52.149Z,99.90
2022-08-19T15:14:25.878Z,99.90
2022-08-19T15:16:58.521Z,99.90
2022-08-19T15:19:30.806Z,99.90
2022-08-19T15:22:02.763Z,99.90
2022-08-19T15:24:34.584Z,99.90
2022-08-19T15:27:11.725Z,99.90
2022-08-19T15:29:43.871Z,99.90
2022-08-19T15:32:37.231Z,99.90
2022-08-19T15:35:12.855Z,99.90
2022-08-19T15:37:44.570Z,99.90
2022-08-19T15:40:16.514Z,99.90
2022-08-19T15:43:10.565Z,99.90
2022-08-19T15:45:47.552Z,99.90
2022-08-19T15:48:21.140Z,99.90
2022-08-19T15:50:53.701Z,99.90
2022-08-19T15:53:31.475Z,99.90
2022-08-19T15:56:03.681Z,99.90
2022-08-19T15:58:53.687Z,99.90
2022-08-19T16:01:30.832Z,99.90
2022-08-19T16:04:26.135Z,99.90
2022-08-19T16:07:24.116Z,99.90
2022-08-19T16:09:57.374Z,99.90
2022-08-19T16:12:36.643Z,99.90
2022-08-19T16:15:09.881Z,99.90
2022-08-19T16:18:07.009Z,99.90
2022-08-19T16:20:44.012Z,99.90
2022-08-19T16:23:15.721Z,99.90
2022-08-19T16:25:47.326Z,99.90
2022-08-19T16:28:21.022Z,99.90
2022-08-19T16:31:13.735Z,99.90
2022-08-19T16:33:48.683Z,99.90
2022-08-19T16:36:21.031Z,99.90
2022-08-19T16:39:15.829Z,99.90
2022-08-19T16:41:48.223Z,99.90
2022-08-19T16:44:21.374Z,99.90
2022-08-19T16:46:58.657Z,99.90
2022-08-19T16:49:53.159Z,99.90
2022-08-19T16:52:28.473Z,99.90
2022-08-19T16:55:00.336Z,99.90
2022-08-19T16:57:51.771Z,99.90
2022-08-19T17:00:42.966Z,99.90
2022-08-19T17:03:15.326Z,99.90
2022-08-19T17:05:51.307Z,99.90
2022-08-19T17:08:48.617Z,99.90
2022-08-19T17:11:21.656Z,99.90
2022-08-19T17:13:57.225Z,99.90
2022-08-19T17:16:33.755Z,99.90
2022-08-19T17:19:07.988Z,99.90
2022-08-19T17:21:41.991Z,99.90
2022-08-19T17:24:13.822Z,99.90
2022-08-19T17:27:05.084Z,99.90
2022-08-19T17:29:36.939Z,99.90
2022-08-19T17:32:09.160Z,99.90
2022-08-19T17:34:40.720Z,99.90
2022-08-19T17:37:31.981Z,99.90
2022-08-19T17:40:05.963Z,99.90
2022-08-19T17:42:38.558Z,99.90
2022-08-19T17:45:12.500Z,99.90
2022-08-19T17:47:45.280Z,99.90
2022-08-19T17:50:17.655Z,99.90
2022-08-19T17:52:49.362Z,99.90
2022-08-19T17:55:41.974Z,99.90
2022-08-19T17:58:13.357Z,99.90
2022-08-19T18:00:53.373Z,99.90
2022-08-19T18:03:28.786Z,99.90
2022-08-19T18:05:59.991Z,99.90
2022-08-19T18:08:31.448Z,99.90
2022-08-19T18:11:03.431Z,99.90
2022-08-19T18:13:34.708Z,99.90
2022-08-19T18:16:12.355Z,99.90
2022-08-19T18:18:45.383Z,99.90
2022-08-19T18:21:17.265Z,99.90
2022-08-19T18:23:51.711Z,99.90
2022-08-19T18:26:28.416Z,99.90
2022-08-19T18:28:59.913Z,99.90
2022-08-19T18:31:31.473Z,99.90
2022-08-19T18:34:03.012Z,99.90
2022-08-19T18:36:53.021Z,99.90
2022-08-19T18:39:45.080Z,99.90
2022-08-19T18:42:35.904Z,99.90
2022-08-19T18:45:26.296Z,99.90
2022-08-19T18:48:26.305Z,99.90
2022-08-19T18:51:01.878Z,99.90
2022-08-19T18:53:35.755Z,99.90
2022-08-19T18:56:09.616Z,99.90
2022-08-19T18:58:41.201Z,99.90
2022-08-19T19:01:22.175Z,99.90
2022-08-19T19:03:56.334Z,99.90
2022-08-19T19:06:32.045Z,99.90
2022-08-19T19:09:03.512Z,99.90
2022-08-19T19:11:38.924Z,99.90
2022-08-19T19:14:23.258Z,99.90
2022-08-19T19:17:07.698Z,99.90
2022-08-19T19:19:43.853Z,99.90
2022-08-19T19:22:20.198Z,99.90
2022-08-19T19:24:53.002Z,99.90
2022-08-19T19:27:24.656Z,99.90
2022-08-19T19:29:57.146Z,99.90
2022-08-19T19:32:38.965Z,99.90
2022-08-19T19:35:14.001Z,99.90
2022-08-19T19:37:46.641Z,99.90
2022-08-19T19:40:18.052Z,99.90
2022-08-19T19:42:49.570Z,99.90
2022-08-19T19:45:21.250Z,99.90
2022-08-19T19:47:52.905Z,99.90
2022-08-19T19:50:24.492Z,99.90
2022-08-19T19:52:56.674Z,99.90
2022-08-19T19:55:28.747Z,99.90
2022-08-19T19:58:00.239Z,99.90
2022-08-19T20:00:31.593Z,99.90
2022-08-19T20:03:02.963Z,99.90
2022-08-19T20:05:34.779Z,99.90
2022-08-19T20:08:24.646Z,99.90
2022-08-19T20:10:56.371Z,99.90
2022-08-19T20:13:27.998Z,99.90
2022-08-19T20:15:59.881Z,99.90
2022-08-19T20:18:31.454Z,99.90
2022-08-19T20:21:03.212Z,99.90
2022-08-19T20:23:34.437Z,99.90
2022-08-19T20:26:33.993Z,99.90
2022-08-19T20:29:13.444Z,99.90
2022-08-19T20:31:59.384Z,99.90
2022-08-19T20:34:31.133Z,99.90
2022-08-19T20:37:02.600Z,99.90
2022-08-19T20:39:33.995Z,99.90
2022-08-19T20:42:05.711Z,99.90
2022-08-19T20:44:37.270Z,99.90
2022-08-19T20:47:08.657Z,99.90
2022-08-19T20:49:39.854Z,99.90
2022-08-19T20:52:12.117Z,99.90
2022-08-19T20:54:46.015Z,99.90
2022-08-19T20:57:17.435Z,99.90
2022-08-19T20:59:48.654Z,99.90
2022-08-19T21:02:21.060Z,99.90
2022-08-19T21:04:52.301Z,99.90
2022-08-19T21:07:39.297Z,99.90
2022-08-19T21:10:12.661Z,99.90
2022-08-19T21:12:46.496Z,99.90
2022-08-19T21:15:19.092Z,99.90
2022-08-19T21:17:50.585Z,99.90
2022-08-19T21:20:21.950Z,99.90
2022-08-19T21:22:54.040Z,99.90
2022-08-19T21:25:33.603Z,99.90
2022-08-19T21:28:07.769Z,99.90
2022-08-19T21:30:39.533Z,99.90
2022-08-19T21:33:14.247Z,99.90
2022-08-19T21:35:45.572Z,99.90
2022-08-19T21:38:16.922Z,99.90
2022-08-19T21:40:48.144Z,99.90
2022-08-19T21:43:19.720Z,99.90
2022-08-19T21:45:52.020Z,99.90
2022-08-19T21:48:23.316Z,99.90
2022-08-19T21:50:54.646Z,99.90
2022-08-19T21:53:25.929Z,99.90
2022-08-19T21:56:07.853Z,99.90
2022-08-19T21:58:39.147Z,99.90
2022-08-19T22:01:11.054Z,99.90
2022-08-19T22:03:42.617Z,99.90
2022-08-19T22:06:14.231Z,99.90
2022-08-19T22:08:46.372Z,99.90
2022-08-19T22:11:18.680Z,99.90
2022-08-19T22:13:50.162Z,99.90
2022-08-19T22:16:22.264Z,99.90
2022-08-19T22:18:55.588Z,99.90
2022-08-19T22:21:39.864Z,99.90
2022-08-19T22:24:12.440Z,99.90
2022-08-19T22:26:43.877Z,99.90
2022-08-19T22:29:15.787Z,99.90
2022-08-19T22:31:54.311Z,99.90
2022-08-19T22:34:49.270Z,99.90
2022-08-19T22:37:21.921Z,99.90
2022-08-19T22:39:53.428Z,99.90
2022-08-19T22:42:31.768Z,99.90
2022-08-19T22:45:04.552Z,99.90
2022-08-19T22:47:39.350Z,99.90
2022-08-19T22:50:13.870Z,99.90
2022-08-19T22:52:51.976Z,99.90
2022-08-19T22:55:23.395Z,99.90
2022-08-19T22:58:15.708Z,99.90
2022-08-19T23:00:59.496Z,99.90
2022-08-19T23:03:30.876Z,99.90
2022-08-19T23:06:02.248Z,99.90
2022-08-19T23:08:33.549Z,99.90
2022-08-19T23:11:05.433Z,99.90
2022-08-19T23:13:36.756Z,99.90
2022-08-19T23:16:08.529Z,99.90
2022-08-19T23:18:40.180Z,99.90
2022-08-19T23:21:11.312Z,99.90
2022-08-19T23:23:42.995Z,99.90
2022-08-19T23:26:14.329Z,99.90
2022-08-19T23:29:03.679Z,99.90
2022-08-19T23:31:36.985Z,99.90
2022-08-19T23:34:08.439Z,99.90
2022-08-19T23:36:40.234Z,99.90
2022-08-19T23:39:11.515Z,99.90
2022-08-19T23:41:43.090Z,99.90
2022-08-19T23:44:15.102Z,99.90
2022-08-19T23:46:54.463Z,99.90
2022-08-19T23:49:27.719Z,99.90
2022-08-19T23:51:59.220Z,99.90
2022-08-19T23:54:43.221Z,99.90
2022-08-19T23:57:15.633Z,99.90
2022-08-19T23:59:46.850Z,99.90
